sensor_id;sensor_type;location;lat;lon;timestamp;pressure;altitude;pressure_sealevel;temperature;humidity
36138;BME280;67787;50.074;21.904;2023-08-08T05:26:27;98943.65;;;15.98;72.07
36138;BME280;67787;50.074;21.904;2023-08-08T05:29:17;98940.83;;;16.03;72.35
36138;BME280;67787;50.074;21.904;2023-08-08T05:32:26;98944.89;;;16.12;72.23
36138;BME280;67787;50.074;21.904;2023-08-08T05:35:30;98942.89;;;16.17;72.15
36138;BME280;67787;50.074;21.904;2023-08-08T05:38:46;98944.80;;;16.18;71.94
36138;BME280;67787;50.074;21.904;2023-08-08T05:41:40;98944.21;;;16.22;72.02
36138;BME280;67787;50.074;21.904;2023-08-08T05:44:58;98948.55;;;16.24;71.86
36138;BME280;67787;50.074;21.904;2023-08-08T05:47:41;98945.33;;;16.26;71.99
36138;BME280;67787;50.074;21.904;2023-08-08T05:50:32;98950.94;;;16.30;71.81
36138;BME280;67787;50.074;21.904;2023-08-08T05:59:59;98949.08;;;16.42;71.71
36138;BME280;67787;50.074;21.904;2023-08-08T06:03:06;98948.16;;;16.46;71.52
36138;BME280;67787;50.074;21.904;2023-08-08T06:06:13;98945.20;;;16.49;71.51
36138;BME280;67787;50.074;21.904;2023-08-08T06:09:16;98949.61;;;16.53;71.24
36138;BME280;67787;50.074;21.904;2023-08-08T06:12:17;98948.84;;;16.57;71.44
36138;BME280;67787;50.074;21.904;2023-08-08T06:15:33;98946.35;;;16.59;70.93
36138;BME280;67787;50.074;21.904;2023-08-08T06:18:35;98947.66;;;16.56;70.89
36138;BME280;67787;50.074;21.904;2023-08-08T06:22:08;98949.05;;;16.60;71.21
36138;BME280;67787;50.074;21.904;2023-08-08T06:25:11;98948.78;;;16.63;70.80
36138;BME280;67787;50.074;21.904;2023-08-08T06:27:43;98950.06;;;16.61;71.19
36138;BME280;67787;50.074;21.904;2023-08-08T06:30:23;98954.77;;;16.64;71.23
36138;BME280;67787;50.074;21.904;2023-08-08T06:33:26;98953.92;;;16.67;71.04
36138;BME280;67787;50.074;21.904;2023-08-08T06:36:13;98954.94;;;16.68;70.93
36138;BME280;67787;50.074;21.904;2023-08-08T06:38:58;98954.73;;;16.72;70.75
36138;BME280;67787;50.074;21.904;2023-08-08T06:44:56;98953.44;;;16.95;70.98
36138;BME280;67787;50.074;21.904;2023-08-08T06:47:24;98953.08;;;17.06;71.21
36138;BME280;67787;50.074;21.904;2023-08-08T06:49:51;98961.25;;;17.16;70.84
36138;BME280;67787;50.074;21.904;2023-08-08T07:01:37;98961.44;;;17.42;70.35
36138;BME280;67787;50.074;21.904;2023-08-08T08:14:50;98968.23;;;18.35;66.91
36138;BME280;67787;50.074;21.904;2023-08-08T08:17:21;98961.23;;;18.38;67.53
36138;BME280;67787;50.074;21.904;2023-08-08T08:20:11;98960.67;;;18.44;67.37
36138;BME280;67787;50.074;21.904;2023-08-08T08:23:06;98963.55;;;18.55;67.35
36138;BME280;67787;50.074;21.904;2023-08-08T08:25:54;98973.05;;;18.58;66.39
36138;BME280;67787;50.074;21.904;2023-08-08T08:28:42;98968.70;;;18.52;66.74
36138;BME280;67787;50.074;21.904;2023-08-08T08:31:27;98965.50;;;18.48;66.58
36138;BME280;67787;50.074;21.904;2023-08-08T08:34:08;98965.42;;;18.44;66.38
36138;BME280;67787;50.074;21.904;2023-08-08T08:36:48;98969.25;;;18.40;66.27
36138;BME280;67787;50.074;21.904;2023-08-08T08:39:45;98966.31;;;18.37;66.50
36138;BME280;67787;50.074;21.904;2023-08-08T08:42:32;98965.75;;;18.41;66.43
36138;BME280;67787;50.074;21.904;2023-08-08T08:45:20;98963.08;;;18.47;66.87
36138;BME280;67787;50.074;21.904;2023-08-08T08:48:09;98967.63;;;18.57;67.02
36138;BME280;67787;50.074;21.904;2023-08-08T08:51:19;98966.17;;;18.66;66.50
36138;BME280;67787;50.074;21.904;2023-08-08T08:54:06;98966.04;;;18.70;65.96
36138;BME280;67787;50.074;21.904;2023-08-08T08:57:22;98965.67;;;18.82;66.38
36138;BME280;67787;50.074;21.904;2023-08-08T09:00:16;98966.80;;;18.90;66.57
36138;BME280;67787;50.074;21.904;2023-08-08T09:02:55;98969.88;;;18.96;66.00
36138;BME280;67787;50.074;21.904;2023-08-08T09:06:04;98975.86;;;18.96;66.05
36138;BME280;67787;50.074;21.904;2023-08-08T09:09:12;98969.89;;;18.94;66.12
36138;BME280;67787;50.074;21.904;2023-08-08T09:11:53;98970.95;;;18.96;65.87
36138;BME280;67787;50.074;21.904;2023-08-08T09:14:45;98964.42;;;18.97;65.96
36138;BME280;67787;50.074;21.904;2023-08-08T09:17:47;98963.85;;;19.02;66.28
36138;BME280;67787;50.074;21.904;2023-08-08T09:20:49;98962.95;;;19.14;66.22
36138;BME280;67787;50.074;21.904;2023-08-08T09:23:46;98959.89;;;19.24;66.20
36138;BME280;67787;50.074;21.904;2023-08-08T09:26:34;98956.42;;;19.29;65.93
36138;BME280;67787;50.074;21.904;2023-08-08T09:29:37;98952.91;;;19.31;65.97
36138;BME280;67787;50.074;21.904;2023-08-08T09:32:23;98955.85;;;19.28;65.92
36138;BME280;67787;50.074;21.904;2023-08-08T09:35:29;98957.80;;;19.23;65.44
36138;BME280;67787;50.074;21.904;2023-08-08T09:38:11;98957.38;;;19.14;64.15
36138;BME280;67787;50.074;21.904;2023-08-08T09:40:55;98959.90;;;18.97;64.21
36138;BME280;67787;50.074;21.904;2023-08-08T09:43:24;98962.88;;;18.89;65.06
36138;BME280;67787;50.074;21.904;2023-08-08T09:45:51;98964.67;;;18.89;64.94
36138;BME280;67787;50.074;21.904;2023-08-08T09:48:39;98958.41;;;18.89;64.76
36138;BME280;67787;50.074;21.904;2023-08-08T09:52:16;98958.33;;;18.89;64.96
36138;BME280;67787;50.074;21.904;2023-08-08T09:55:30;98965.00;;;18.89;64.09
36138;BME280;67787;50.074;21.904;2023-08-08T09:58:03;98955.40;;;18.88;64.46
36138;BME280;67787;50.074;21.904;2023-08-08T10:00:31;98957.84;;;18.86;64.22
36138;BME280;67787;50.074;21.904;2023-08-08T10:03:02;98952.36;;;18.88;64.20
36138;BME280;67787;50.074;21.904;2023-08-08T10:05:29;98950.80;;;18.95;64.22
36138;BME280;67787;50.074;21.904;2023-08-08T10:07:57;98949.91;;;19.05;64.18
36138;BME280;67787;50.074;21.904;2023-08-08T10:10:24;98946.97;;;19.14;63.81
36138;BME280;67787;50.074;21.904;2023-08-08T10:12:52;98945.38;;;19.23;64.11
36138;BME280;67787;50.074;21.904;2023-08-08T10:15:26;98938.63;;;19.37;64.00
36138;BME280;67787;50.074;21.904;2023-08-08T10:18:00;98941.61;;;19.47;63.93
36138;BME280;67787;50.074;21.904;2023-08-08T10:20:27;98937.72;;;19.55;63.50
36138;BME280;67787;50.074;21.904;2023-08-08T10:22:55;98926.56;;;19.63;63.51
36138;BME280;67787;50.074;21.904;2023-08-08T10:25:26;98928.46;;;19.72;63.70
36138;BME280;67787;50.074;21.904;2023-08-08T10:28:09;98923.58;;;19.77;63.61
36138;BME280;67787;50.074;21.904;2023-08-08T10:31:00;98917.86;;;19.78;62.51
36138;BME280;67787;50.074;21.904;2023-08-08T10:33:44;98915.46;;;19.78;63.12
36138;BME280;67787;50.074;21.904;2023-08-08T10:39:29;98918.14;;;19.73;62.15
36138;BME280;67787;50.074;21.904;2023-08-08T10:42:03;98919.73;;;19.68;61.94
36138;BME280;67787;50.074;21.904;2023-08-08T10:44:40;98919.31;;;19.60;61.79
36138;BME280;67787;50.074;21.904;2023-08-08T10:47:46;98923.89;;;19.45;62.00
36138;BME280;67787;50.074;21.904;2023-08-08T10:50:22;98930.70;;;19.29;61.92
36138;BME280;67787;50.074;21.904;2023-08-08T10:54:20;98921.16;;;19.13;62.15
36138;BME280;67787;50.074;21.904;2023-08-08T10:57:17;98919.36;;;19.16;62.08
36138;BME280;67787;50.074;21.904;2023-08-08T11:00:28;98916.25;;;19.20;62.13
36138;BME280;67787;50.074;21.904;2023-08-08T11:03:44;98910.01;;;19.26;62.67
36138;BME280;67787;50.074;21.904;2023-08-08T11:06:39;98910.41;;;19.39;62.33
36138;BME280;67787;50.074;21.904;2023-08-08T11:09:08;98908.04;;;19.47;62.08
36138;BME280;67787;50.074;21.904;2023-08-08T11:11:38;98910.11;;;19.53;62.13
36138;BME280;67787;50.074;21.904;2023-08-08T11:14:11;98913.21;;;19.54;62.16
36138;BME280;67787;50.074;21.904;2023-08-08T11:16:57;98908.77;;;19.58;62.25
36138;BME280;67787;50.074;21.904;2023-08-08T11:20:03;98907.67;;;19.74;61.91
36138;BME280;67787;50.074;21.904;2023-08-08T11:22:34;98908.81;;;19.87;61.76
36138;BME280;67787;50.074;21.904;2023-08-08T11:25:03;98905.45;;;19.96;61.41
36138;BME280;67787;50.074;21.904;2023-08-08T11:27:57;98903.14;;;19.97;61.73
36138;BME280;67787;50.074;21.904;2023-08-08T11:30:45;98909.65;;;20.05;61.60
36138;BME280;67787;50.074;21.904;2023-08-08T11:33:18;98907.02;;;20.06;61.21
36138;BME280;67787;50.074;21.904;2023-08-08T11:35:59;98915.64;;;20.01;61.19
36138;BME280;67787;50.074;21.904;2023-08-08T11:38:27;98927.02;;;19.93;61.33
36138;BME280;67787;50.074;21.904;2023-08-08T11:41:52;98938.05;;;19.79;61.94
36138;BME280;67787;50.074;21.904;2023-08-08T11:44:42;98933.88;;;19.64;62.09
36138;BME280;67787;50.074;21.904;2023-08-08T11:47:10;98931.14;;;19.54;62.26
36138;BME280;67787;50.074;21.904;2023-08-08T11:50:11;98931.16;;;19.46;62.52
36138;BME280;67787;50.074;21.904;2023-08-08T11:53:07;98930.29;;;19.47;62.53
36138;BME280;67787;50.074;21.904;2023-08-08T11:56:26;98928.89;;;19.53;62.59
36138;BME280;67787;50.074;21.904;2023-08-08T11:59:20;98920.89;;;19.62;62.73
36138;BME280;67787;50.074;21.904;2023-08-08T12:02:22;98915.64;;;19.72;62.73
36138;BME280;67787;50.074;21.904;2023-08-08T12:05:10;98918.35;;;19.77;62.69
36138;BME280;67787;50.074;21.904;2023-08-08T12:07:58;98907.81;;;19.80;62.40
36138;BME280;67787;50.074;21.904;2023-08-08T12:10:34;98908.20;;;19.82;62.19
36138;BME280;67787;50.074;21.904;2023-08-08T12:13:31;98906.84;;;19.93;62.29
36138;BME280;67787;50.074;21.904;2023-08-08T12:16:03;98904.11;;;20.04;62.10
36138;BME280;67787;50.074;21.904;2023-08-08T12:18:52;98902.48;;;20.14;62.13
36138;BME280;67787;50.074;21.904;2023-08-08T12:22:05;98899.20;;;20.30;62.01
36138;BME280;67787;50.074;21.904;2023-08-08T12:25:16;98898.87;;;20.44;61.97
36138;BME280;67787;50.074;21.904;2023-08-08T12:28:18;98899.33;;;20.57;61.84
36138;BME280;67787;50.074;21.904;2023-08-08T12:31:02;98894.93;;;20.70;61.79
36138;BME280;67787;50.074;21.904;2023-08-08T12:34:05;98895.67;;;20.79;61.79
36138;BME280;67787;50.074;21.904;2023-08-08T12:37:05;98893.27;;;20.84;61.16
36138;BME280;67787;50.074;21.904;2023-08-08T12:39:35;98893.60;;;20.91;61.25
36138;BME280;67787;50.074;21.904;2023-08-08T12:42:40;98896.65;;;20.94;60.62
36138;BME280;67787;50.074;21.904;2023-08-08T12:45:31;98901.53;;;20.88;60.51
36138;BME280;67787;50.074;21.904;2023-08-08T12:48:36;98895.28;;;20.78;60.48
36138;BME280;67787;50.074;21.904;2023-08-08T12:51:25;98900.46;;;20.70;59.98
36138;BME280;67787;50.074;21.904;2023-08-08T12:54:37;98898.52;;;20.68;60.08
36138;BME280;67787;50.074;21.904;2023-08-08T12:58:32;98902.76;;;20.71;59.81
36138;BME280;67787;50.074;21.904;2023-08-08T13:01:20;98908.02;;;20.69;59.83
36138;BME280;67787;50.074;21.904;2023-08-08T13:03:48;98907.92;;;20.65;60.04
36138;BME280;67787;50.074;21.904;2023-08-08T13:06:41;98915.09;;;20.58;60.18
36138;BME280;67787;50.074;21.904;2023-08-08T13:10:30;98915.77;;;20.46;59.90
36138;BME280;67787;50.074;21.904;2023-08-08T13:12:58;98916.41;;;20.38;59.82
36138;BME280;67787;50.074;21.904;2023-08-08T13:16:03;98914.91;;;20.36;60.15
36138;BME280;67787;50.074;21.904;2023-08-08T13:18:33;98916.46;;;20.38;59.87
36138;BME280;67787;50.074;21.904;2023-08-08T13:21:43;98914.30;;;20.40;60.02
36138;BME280;67787;50.074;21.904;2023-08-08T13:24:55;98915.44;;;20.41;59.72
36138;BME280;67787;50.074;21.904;2023-08-08T13:27:26;98918.29;;;20.39;59.82
36138;BME280;67787;50.074;21.904;2023-08-08T13:30:14;98912.91;;;20.41;59.72
36138;BME280;67787;50.074;21.904;2023-08-08T13:33:44;98909.27;;;20.43;59.52
36138;BME280;67787;50.074;21.904;2023-08-08T13:36:39;98906.00;;;20.43;59.67
36138;BME280;67787;50.074;21.904;2023-08-08T13:39:46;98913.12;;;20.45;59.49
36138;BME280;67787;50.074;21.904;2023-08-08T13:42:37;98912.16;;;20.47;59.23
36138;BME280;67787;50.074;21.904;2023-08-08T13:46:00;98916.00;;;20.51;59.31
36138;BME280;67787;50.074;21.904;2023-08-08T13:49:06;98916.35;;;20.51;58.98
36138;BME280;67787;50.074;21.904;2023-08-08T13:51:34;98917.30;;;20.49;59.23
36138;BME280;67787;50.074;21.904;2023-08-08T13:54:04;98917.83;;;20.48;59.16
36138;BME280;67787;50.074;21.904;2023-08-08T13:57:31;98918.73;;;20.42;59.00
36138;BME280;67787;50.074;21.904;2023-08-08T14:00:31;98916.43;;;20.38;59.18
36138;BME280;67787;50.074;21.904;2023-08-08T14:03:03;98916.81;;;20.33;59.07
36138;BME280;67787;50.074;21.904;2023-08-08T14:05:33;98920.27;;;20.30;58.96
36138;BME280;67787;50.074;21.904;2023-08-08T14:08:22;98928.41;;;20.23;58.77
36138;BME280;67787;50.074;21.904;2023-08-08T14:10:51;98935.76;;;20.14;58.27
36138;BME280;67787;50.074;21.904;2023-08-08T14:13:20;98945.76;;;20.04;57.91
36138;BME280;67787;50.074;21.904;2023-08-08T14:16:27;98956.23;;;19.87;58.08
36138;BME280;67787;50.074;21.904;2023-08-08T14:18:57;98955.23;;;19.80;58.59
36138;BME280;67787;50.074;21.904;2023-08-08T14:21:27;98957.23;;;19.80;58.67
36138;BME280;67787;50.074;21.904;2023-08-08T14:24:33;98956.23;;;19.82;58.50
36138;BME280;67787;50.074;21.904;2023-08-08T14:27:01;98957.14;;;19.89;58.69
36138;BME280;67787;50.074;21.904;2023-08-08T14:29:34;98962.33;;;19.97;58.79
36138;BME280;67787;50.074;21.904;2023-08-08T14:32:02;98961.91;;;20.08;58.80
36138;BME280;67787;50.074;21.904;2023-08-08T14:34:34;98965.25;;;20.16;58.67
36138;BME280;67787;50.074;21.904;2023-08-08T14:37:04;98965.89;;;20.21;58.42
36138;BME280;67787;50.074;21.904;2023-08-08T14:39:33;98966.11;;;20.18;58.37
36138;BME280;67787;50.074;21.904;2023-08-08T14:42:01;98970.61;;;20.08;58.34
36138;BME280;67787;50.074;21.904;2023-08-08T14:44:31;98971.27;;;20.04;58.14
36138;BME280;67787;50.074;21.904;2023-08-08T14:47:01;98975.16;;;20.01;58.36
36138;BME280;67787;50.074;21.904;2023-08-08T14:49:28;98977.09;;;20.00;58.34
36138;BME280;67787;50.074;21.904;2023-08-08T14:51:57;98981.62;;;19.99;58.16
36138;BME280;67787;50.074;21.904;2023-08-08T14:54:32;98979.25;;;19.99;58.46
36138;BME280;67787;50.074;21.904;2023-08-08T14:57:31;98976.15;;;20.05;58.49
36138;BME280;67787;50.074;21.904;2023-08-08T14:59:59;98971.56;;;20.14;58.50
36138;BME280;67787;50.074;21.904;2023-08-08T15:02:30;98964.41;;;20.19;58.58
36138;BME280;67787;50.074;21.904;2023-08-08T15:04:58;98962.42;;;20.25;58.59
36138;BME280;67787;50.074;21.904;2023-08-08T15:07:26;98963.96;;;20.29;58.19
36138;BME280;67787;50.074;21.904;2023-08-08T15:09:54;98957.92;;;20.28;57.81
36138;BME280;67787;50.074;21.904;2023-08-08T15:12:21;98956.42;;;20.24;57.99
36138;BME280;67787;50.074;21.904;2023-08-08T15:14:51;98954.73;;;20.23;57.69
36138;BME280;67787;50.074;21.904;2023-08-08T15:17:42;98960.45;;;20.23;57.57
36138;BME280;67787;50.074;21.904;2023-08-08T15:20:16;98960.60;;;20.21;57.60
36138;BME280;67787;50.074;21.904;2023-08-08T15:22:44;98961.79;;;20.18;57.36
36138;BME280;67787;50.074;21.904;2023-08-08T15:25:11;98961.88;;;20.17;57.61
36138;BME280;67787;50.074;21.904;2023-08-08T15:27:38;98966.58;;;20.19;57.62
36138;BME280;67787;50.074;21.904;2023-08-08T15:30:05;98968.55;;;20.16;57.02
36138;BME280;67787;50.074;21.904;2023-08-08T15:32:31;98971.88;;;20.04;57.25
36138;BME280;67787;50.074;21.904;2023-08-08T15:34:59;98971.73;;;19.92;57.36
36138;BME280;67787;50.074;21.904;2023-08-08T15:37:32;98980.09;;;19.81;57.36
36138;BME280;67787;50.074;21.904;2023-08-08T15:39:59;98981.91;;;19.71;57.32
36138;BME280;67787;50.074;21.904;2023-08-08T15:42:29;98979.65;;;19.59;57.05
36138;BME280;67787;50.074;21.904;2023-08-08T15:45:17;98977.60;;;19.49;57.39
36138;BME280;67787;50.074;21.904;2023-08-08T15:47:47;98970.63;;;19.42;57.51
36138;BME280;67787;50.074;21.904;2023-08-08T15:50:43;98972.02;;;19.39;57.62
36138;BME280;67787;50.074;21.904;2023-08-08T15:53:10;98974.80;;;19.43;57.64
36138;BME280;67787;50.074;21.904;2023-08-08T15:55:38;98973.88;;;19.52;57.66
36138;BME280;67787;50.074;21.904;2023-08-08T15:58:05;98974.68;;;19.60;57.38
36138;BME280;67787;50.074;21.904;2023-08-08T16:00:34;98973.23;;;19.73;57.61
36138;BME280;67787;50.074;21.904;2023-08-08T16:03:04;98980.70;;;19.86;57.54
36138;BME280;67787;50.074;21.904;2023-08-08T16:05:32;98972.84;;;19.94;57.45
36138;BME280;67787;50.074;21.904;2023-08-08T16:07:59;98972.40;;;19.96;57.43
36138;BME280;67787;50.074;21.904;2023-08-08T16:10:32;98972.57;;;19.94;57.04
36138;BME280;67787;50.074;21.904;2023-08-08T16:12:59;98972.95;;;19.88;56.61
36138;BME280;67787;50.074;21.904;2023-08-08T16:15:27;98979.90;;;19.78;56.72
36138;BME280;67787;50.074;21.904;2023-08-08T16:17:54;98982.12;;;19.71;56.63
36138;BME280;67787;50.074;21.904;2023-08-08T16:20:25;98982.03;;;19.66;56.66
36138;BME280;67787;50.074;21.904;2023-08-08T16:22:53;98988.82;;;19.59;56.64
36138;BME280;67787;50.074;21.904;2023-08-08T16:25:22;98989.20;;;19.58;56.60
36138;BME280;67787;50.074;21.904;2023-08-08T16:27:49;98993.16;;;19.61;56.41
36138;BME280;67787;50.074;21.904;2023-08-08T16:30:17;98991.91;;;19.67;56.54
36138;BME280;67787;50.074;21.904;2023-08-08T16:32:44;98993.10;;;19.76;56.77
36138;BME280;67787;50.074;21.904;2023-08-08T16:35:11;98993.46;;;19.77;56.75
36138;BME280;67787;50.074;21.904;2023-08-08T16:37:39;98990.38;;;19.75;56.73
36138;BME280;67787;50.074;21.904;2023-08-08T16:40:10;98989.03;;;19.74;56.72
36138;BME280;67787;50.074;21.904;2023-08-08T16:42:37;98993.12;;;19.71;56.41
36138;BME280;67787;50.074;21.904;2023-08-08T16:45:04;98994.79;;;19.64;56.36
36138;BME280;67787;50.074;21.904;2023-08-08T16:47:45;98992.13;;;19.61;56.61
36138;BME280;67787;50.074;21.904;2023-08-08T16:50:12;98993.65;;;19.61;56.68
36138;BME280;67787;50.074;21.904;2023-08-08T16:52:39;98998.33;;;19.60;56.62
36138;BME280;67787;50.074;21.904;2023-08-08T16:55:06;98998.58;;;19.56;56.73
36138;BME280;67787;50.074;21.904;2023-08-08T16:57:33;98997.39;;;19.58;56.72
36138;BME280;67787;50.074;21.904;2023-08-08T17:00:00;98997.29;;;19.58;56.59
36138;BME280;67787;50.074;21.904;2023-08-08T17:02:27;98997.93;;;19.57;56.61
36138;BME280;67787;50.074;21.904;2023-08-08T17:05:40;98992.98;;;19.54;56.48
36138;BME280;67787;50.074;21.904;2023-08-08T17:08:08;98992.21;;;19.53;56.59
36138;BME280;67787;50.074;21.904;2023-08-08T17:10:35;98994.79;;;19.49;56.57
36138;BME280;67787;50.074;21.904;2023-08-08T17:13:03;98995.86;;;19.46;56.59
36138;BME280;67787;50.074;21.904;2023-08-08T17:15:32;98996.17;;;19.44;56.59
36138;BME280;67787;50.074;21.904;2023-08-08T17:18:00;99002.41;;;19.39;56.47
36138;BME280;67787;50.074;21.904;2023-08-08T17:20:27;99003.23;;;19.33;56.67
36138;BME280;67787;50.074;21.904;2023-08-08T17:22:55;99002.53;;;19.28;56.53
36138;BME280;67787;50.074;21.904;2023-08-08T17:25:22;99004.21;;;19.24;56.59
36138;BME280;67787;50.074;21.904;2023-08-08T17:27:49;99006.02;;;19.23;56.70
36138;BME280;67787;50.074;21.904;2023-08-08T17:30:16;99012.77;;;19.20;56.75
36138;BME280;67787;50.074;21.904;2023-08-08T17:32:44;99015.57;;;19.17;56.70
36138;BME280;67787;50.074;21.904;2023-08-08T17:35:11;99014.64;;;19.11;56.72
36138;BME280;67787;50.074;21.904;2023-08-08T17:37:39;99013.02;;;19.03;56.82
36138;BME280;67787;50.074;21.904;2023-08-08T17:40:05;99016.75;;;18.93;56.87
36138;BME280;67787;50.074;21.904;2023-08-08T17:42:33;99014.96;;;18.86;56.95
36138;BME280;67787;50.074;21.904;2023-08-08T17:45:00;99015.11;;;18.78;57.03
36138;BME280;67787;50.074;21.904;2023-08-08T17:47:29;99015.84;;;18.69;57.05
36138;BME280;67787;50.074;21.904;2023-08-08T17:49:59;99019.27;;;18.57;57.11
36138;BME280;67787;50.074;21.904;2023-08-08T17:52:30;99021.94;;;18.44;57.10
36138;BME280;67787;50.074;21.904;2023-08-08T17:54:57;99026.65;;;18.34;57.23
36138;BME280;67787;50.074;21.904;2023-08-08T17:57:24;99026.95;;;18.22;57.22
36138;BME280;67787;50.074;21.904;2023-08-08T17:59:51;99029.25;;;18.09;57.17
36138;BME280;67787;50.074;21.904;2023-08-08T18:02:18;99032.52;;;17.98;57.31
36138;BME280;67787;50.074;21.904;2023-08-08T18:04:46;99036.95;;;17.90;57.39
36138;BME280;67787;50.074;21.904;2023-08-08T18:07:12;99040.52;;;17.83;57.33
36138;BME280;67787;50.074;21.904;2023-08-08T18:09:42;99044.35;;;17.73;57.41
36138;BME280;67787;50.074;21.904;2023-08-08T18:12:12;99046.31;;;17.63;57.35
36138;BME280;67787;50.074;21.904;2023-08-08T18:14:40;99048.48;;;17.56;57.42
36138;BME280;67787;50.074;21.904;2023-08-08T18:17:07;99050.71;;;17.46;57.31
36138;BME280;67787;50.074;21.904;2023-08-08T18:19:34;99051.95;;;17.39;57.41
